Farmingdale, Maine
Current Conditions -  °F | °C
As of 11:53 PM on Saturday 22 Nov 2014 (Local Time) from KAUG Reporting Station
Overcast Overcast  
Wind Chill: 27°   Ceiling: 3800
Heat Index: 33°   Visibility: 10mi
Dew Point: 12°   Wind: 7mph
Humidity: 42%   Direction: 190°S
Pressure: 29.93"   Gusts: NA
Location:  44.25°N, 69.78°W
Report Text: KAUG 230453Z AUTO 19006KT 10SM OVC038 01/M11 A2993 RMK AO2 SLP140 T00061111 400171078
Loading
Personal Weather Stations






























Interactive Weather Map New forecast layout! Learn more

10-Day Weather Forecast

Advertisements
Track Severe Weather on mobile